sensor_id;sensor_type;location;lat;lon;timestamp;pressure;altitude;pressure_sealevel;temperature;humidity
71907;BME280;59781;52.090;5.030;2024-01-07T00:00:20;101852.78;;;1.70;100.00
71907;BME280;59781;52.090;5.030;2024-01-07T00:02:46;101854.88;;;1.49;100.00
71907;BME280;59781;52.090;5.030;2024-01-07T00:05:12;101867.09;;;1.67;100.00
71907;BME280;59781;52.090;5.030;2024-01-07T00:07:37;101859.16;;;1.52;100.00
71907;BME280;59781;52.090;5.030;2024-01-07T00:10:03;101861.38;;;1.59;100.00
71907;BME280;59781;52.090;5.030;2024-01-07T00:12:29;101871.25;;;1.41;100.00
71907;BME280;59781;52.090;5.030;2024-01-07T00:14:55;101876.94;;;1.65;100.00
71907;BME280;59781;52.090;5.030;2024-01-07T00:17:20;101876.72;;;1.84;100.00
71907;BME280;59781;52.090;5.030;2024-01-07T00:19:46;101876.06;;;1.65;100.00
71907;BME280;59781;52.090;5.030;2024-01-07T00:22:12;101886.69;;;1.65;100.00
71907;BME280;59781;52.090;5.030;2024-01-07T00:24:37;101886.28;;;1.57;100.00
71907;BME280;59781;52.090;5.030;2024-01-07T00:27:03;101885.09;;;1.62;100.00
71907;BME280;59781;52.090;5.030;2024-01-07T00:29:29;101889.13;;;1.54;100.00
71907;BME280;59781;52.090;5.030;2024-01-07T00:31:55;101897.75;;;1.57;100.00
71907;BME280;59781;52.090;5.030;2024-01-07T00:34:21;101893.38;;;1.72;100.00
71907;BME280;59781;52.090;5.030;2024-01-07T00:36:47;101894.44;;;1.54;100.00
71907;BME280;59781;52.090;5.030;2024-01-07T00:39:12;101881.94;;;1.40;100.00
71907;BME280;59781;52.090;5.030;2024-01-07T00:41:38;101898.81;;;1.39;100.00
71907;BME280;59781;52.090;5.030;2024-01-07T00:44:04;101900.06;;;1.63;100.00
71907;BME280;59781;52.090;5.030;2024-01-07T00:46:29;101900.84;;;1.34;100.00
71907;BME280;59781;52.090;5.030;2024-01-07T00:48:55;101896.16;;;1.39;100.00
71907;BME280;59781;52.090;5.030;2024-01-07T00:51:21;101898.34;;;1.47;100.00
71907;BME280;59781;52.090;5.030;2024-01-07T00:53:46;101910.72;;;1.32;100.00
71907;BME280;59781;52.090;5.030;2024-01-07T00:56:12;101914.47;;;1.43;100.00
71907;BME280;59781;52.090;5.030;2024-01-07T00:58:37;101900.84;;;1.34;100.00
71907;BME280;59781;52.090;5.030;2024-01-07T01:01:03;101909.44;;;1.39;100.00
71907;BME280;59781;52.090;5.030;2024-01-07T01:03:29;101918.50;;;1.35;100.00
71907;BME280;59781;52.090;5.030;2024-01-07T01:05:55;101918.50;;;1.19;100.00
71907;BME280;59781;52.090;5.030;2024-01-07T01:08:20;101926.31;;;1.38;100.00
71907;BME280;59781;52.090;5.030;2024-01-07T01:10:46;101930.66;;;1.39;100.00
71907;BME280;59781;52.090;5.030;2024-01-07T01:13:12;101926.47;;;1.19;100.00
71907;BME280;59781;52.090;5.030;2024-01-07T01:15:37;101929.63;;;1.10;100.00
71907;BME280;59781;52.090;5.030;2024-01-07T01:18:03;101928.50;;;1.14;100.00
71907;BME280;59781;52.090;5.030;2024-01-07T01:20:29;101941.31;;;1.06;100.00
71907;BME280;59781;52.090;5.030;2024-01-07T01:22:55;101935.88;;;1.09;100.00
71907;BME280;59781;52.090;5.030;2024-01-07T01:25:21;101930.13;;;1.17;100.00
71907;BME280;59781;52.090;5.030;2024-01-07T01:27:47;101943.84;;;1.40;100.00
71907;BME280;59781;52.090;5.030;2024-01-07T01:30:13;101945.88;;;1.20;100.00
71907;BME280;59781;52.090;5.030;2024-01-07T01:32:39;101944.41;;;1.14;100.00
71907;BME280;59781;52.090;5.030;2024-01-07T01:35:05;101946.66;;;1.37;100.00
71907;BME280;59781;52.090;5.030;2024-01-07T01:37:31;101941.41;;;1.04;100.00
71907;BME280;59781;52.090;5.030;2024-01-07T01:40:00;101941.78;;;1.30;100.00
71907;BME280;59781;52.090;5.030;2024-01-07T01:42:25;101940.91;;;1.45;100.00
71907;BME280;59781;52.090;5.030;2024-01-07T01:44:51;101947.09;;;1.46;100.00
71907;BME280;59781;52.090;5.030;2024-01-07T01:47:19;101955.16;;;1.28;100.00
71907;BME280;59781;52.090;5.030;2024-01-07T01:49:45;101953.59;;;1.24;100.00
71907;BME280;59781;52.090;5.030;2024-01-07T01:52:14;101952.06;;;1.20;100.00
71907;BME280;59781;52.090;5.030;2024-01-07T01:54:40;101960.16;;;1.17;100.00
71907;BME280;59781;52.090;5.030;2024-01-07T01:57:09;101957.00;;;1.10;100.00
71907;BME280;59781;52.090;5.030;2024-01-07T01:59:42;101958.53;;;1.14;100.00
71907;BME280;59781;52.090;5.030;2024-01-07T02:02:08;101968.81;;;1.21;100.00
71907;BME280;59781;52.090;5.030;2024-01-07T02:04:34;101966.50;;;1.14;100.00
71907;BME280;59781;52.090;5.030;2024-01-07T02:07:00;101970.13;;;0.96;100.00
71907;BME280;59781;52.090;5.030;2024-01-07T02:09:26;101965.63;;;1.14;100.00
71907;BME280;59781;52.090;5.030;2024-01-07T02:12:12;101971.78;;;1.14;100.00
71907;BME280;59781;52.090;5.030;2024-01-07T02:14:38;101979.38;;;1.05;100.00
71907;BME280;59781;52.090;5.030;2024-01-07T02:17:04;101983.94;;;1.03;100.00
71907;BME280;59781;52.090;5.030;2024-01-07T02:19:30;101983.25;;;1.48;100.00
71907;BME280;59781;52.090;5.030;2024-01-07T02:21:56;101983.81;;;1.37;100.00
71907;BME280;59781;52.090;5.030;2024-01-07T02:24:22;101991.75;;;1.37;100.00
71907;BME280;59781;52.090;5.030;2024-01-07T02:26:48;101996.41;;;1.34;100.00
71907;BME280;59781;52.090;5.030;2024-01-07T02:29:13;101987.00;;;1.28;100.00
71907;BME280;59781;52.090;5.030;2024-01-07T02:31:39;101996.13;;;1.23;100.00
71907;BME280;59781;52.090;5.030;2024-01-07T02:34:05;102000.25;;;0.95;100.00
71907;BME280;59781;52.090;5.030;2024-01-07T02:36:30;101993.56;;;1.21;100.00
71907;BME280;59781;52.090;5.030;2024-01-07T02:38:56;101995.31;;;1.05;100.00
71907;BME280;59781;52.090;5.030;2024-01-07T02:41:22;101996.22;;;1.37;100.00
71907;BME280;59781;52.090;5.030;2024-01-07T02:43:51;101998.78;;;1.23;100.00
71907;BME280;59781;52.090;5.030;2024-01-07T02:46:16;101994.72;;;1.15;100.00
71907;BME280;59781;52.090;5.030;2024-01-07T02:48:42;102000.53;;;1.06;100.00
71907;BME280;59781;52.090;5.030;2024-01-07T02:51:08;102007.88;;;1.01;100.00
71907;BME280;59781;52.090;5.030;2024-01-07T02:53:34;102003.34;;;0.70;100.00
71907;BME280;59781;52.090;5.030;2024-01-07T02:55:59;102016.31;;;0.92;100.00
71907;BME280;59781;52.090;5.030;2024-01-07T02:58:25;102009.97;;;1.12;100.00
71907;BME280;59781;52.090;5.030;2024-01-07T03:00:51;102002.91;;;1.28;100.00
71907;BME280;59781;52.090;5.030;2024-01-07T03:03:17;102006.34;;;1.30;100.00
71907;BME280;59781;52.090;5.030;2024-01-07T03:05:42;101997.28;;;1.01;100.00
71907;BME280;59781;52.090;5.030;2024-01-07T03:08:08;102010.09;;;0.76;100.00
71907;BME280;59781;52.090;5.030;2024-01-07T03:10:34;102006.41;;;0.96;100.00
71907;BME280;59781;52.090;5.030;2024-01-07T03:13:01;102015.97;;;1.15;100.00
71907;BME280;59781;52.090;5.030;2024-01-07T03:15:28;102016.44;;;1.06;100.00
71907;BME280;59781;52.090;5.030;2024-01-07T03:17:54;102014.28;;;0.97;100.00
71907;BME280;59781;52.090;5.030;2024-01-07T03:20:19;102020.69;;;1.26;100.00
71907;BME280;59781;52.090;5.030;2024-01-07T03:22:45;102021.72;;;1.24;100.00
71907;BME280;59781;52.090;5.030;2024-01-07T03:25:11;102026.56;;;1.15;100.00
71907;BME280;59781;52.090;5.030;2024-01-07T03:27:36;102017.63;;;1.34;100.00
71907;BME280;59781;52.090;5.030;2024-01-07T03:30:02;102013.75;;;1.24;100.00
71907;BME280;59781;52.090;5.030;2024-01-07T03:32:28;102027.50;;;1.14;100.00
71907;BME280;59781;52.090;5.030;2024-01-07T03:34:54;102023.34;;;1.26;100.00
71907;BME280;59781;52.090;5.030;2024-01-07T03:37:19;102026.44;;;1.19;100.00
71907;BME280;59781;52.090;5.030;2024-01-07T03:39:46;102026.28;;;1.37;100.00
71907;BME280;59781;52.090;5.030;2024-01-07T03:42:12;102025.25;;;1.07;100.00
71907;BME280;59781;52.090;5.030;2024-01-07T03:44:38;102034.81;;;0.94;100.00
71907;BME280;59781;52.090;5.030;2024-01-07T03:47:08;102028.72;;;1.09;100.00
71907;BME280;59781;52.090;5.030;2024-01-07T03:49:36;102036.38;;;0.80;100.00
71907;BME280;59781;52.090;5.030;2024-01-07T03:52:03;102057.03;;;0.91;100.00
71907;BME280;59781;52.090;5.030;2024-01-07T03:54:32;102053.84;;;1.02;100.00
71907;BME280;59781;52.090;5.030;2024-01-07T03:56:57;102055.53;;;1.03;100.00
71907;BME280;59781;52.090;5.030;2024-01-07T03:59:23;102062.00;;;1.14;100.00
71907;BME280;59781;52.090;5.030;2024-01-07T04:01:51;102062.84;;;1.15;100.00
71907;BME280;59781;52.090;5.030;2024-01-07T04:04:19;102062.47;;;1.05;100.00
71907;BME280;59781;52.090;5.030;2024-01-07T04:06:44;102066.88;;;1.39;100.00
71907;BME280;59781;52.090;5.030;2024-01-07T04:09:10;102077.44;;;1.24;100.00
71907;BME280;59781;52.090;5.030;2024-01-07T04:11:40;102072.00;;;1.09;100.00
71907;BME280;59781;52.090;5.030;2024-01-07T04:14:06;102082.25;;;1.00;100.00
71907;BME280;59781;52.090;5.030;2024-01-07T04:16:32;102087.94;;;1.09;100.00
71907;BME280;59781;52.090;5.030;2024-01-07T04:18:57;102096.53;;;0.80;100.00
71907;BME280;59781;52.090;5.030;2024-01-07T04:21:23;102097.38;;;0.80;100.00
71907;BME280;59781;52.090;5.030;2024-01-07T04:23:49;102100.34;;;1.09;100.00
71907;BME280;59781;52.090;5.030;2024-01-07T04:26:15;102110.00;;;0.93;100.00
71907;BME280;59781;52.090;5.030;2024-01-07T04:28:41;102093.78;;;0.81;100.00
71907;BME280;59781;52.090;5.030;2024-01-07T04:31:08;102103.13;;;1.06;100.00
71907;BME280;59781;52.090;5.030;2024-01-07T04:33:34;102102.69;;;0.80;100.00
71907;BME280;59781;52.090;5.030;2024-01-07T04:35:59;102096.66;;;0.77;100.00
71907;BME280;59781;52.090;5.030;2024-01-07T04:38:27;102110.78;;;0.95;100.00
71907;BME280;59781;52.090;5.030;2024-01-07T04:40:53;102113.03;;;1.02;100.00
71907;BME280;59781;52.090;5.030;2024-01-07T04:43:19;102115.53;;;0.88;100.00
71907;BME280;59781;52.090;5.030;2024-01-07T04:45:44;102116.94;;;1.12;100.00
71907;BME280;59781;52.090;5.030;2024-01-07T04:48:10;102118.53;;;0.99;100.00
71907;BME280;59781;52.090;5.030;2024-01-07T04:50:36;102117.59;;;1.00;100.00
71907;BME280;59781;52.090;5.030;2024-01-07T04:53:02;102121.00;;;1.02;100.00
71907;BME280;59781;52.090;5.030;2024-01-07T04:55:29;102131.44;;;0.71;100.00
71907;BME280;59781;52.090;5.030;2024-01-07T04:57:55;102123.44;;;0.90;100.00
71907;BME280;59781;52.090;5.030;2024-01-07T05:00:21;102131.16;;;0.58;100.00
71907;BME280;59781;52.090;5.030;2024-01-07T05:02:47;102140.22;;;0.54;100.00
71907;BME280;59781;52.090;5.030;2024-01-07T05:05:12;102138.69;;;0.84;100.00
71907;BME280;59781;52.090;5.030;2024-01-07T05:07:38;102143.53;;;0.94;100.00
71907;BME280;59781;52.090;5.030;2024-01-07T05:10:05;102134.66;;;1.12;100.00
71907;BME280;59781;52.090;5.030;2024-01-07T05:12:31;102136.84;;;1.04;100.00
71907;BME280;59781;52.090;5.030;2024-01-07T05:14:56;102136.69;;;0.90;100.00
71907;BME280;59781;52.090;5.030;2024-01-07T05:17:22;102155.78;;;0.96;100.00
71907;BME280;59781;52.090;5.030;2024-01-07T05:19:48;102149.47;;;0.81;100.00
71907;BME280;59781;52.090;5.030;2024-01-07T05:22:13;102158.84;;;1.06;100.00
71907;BME280;59781;52.090;5.030;2024-01-07T05:24:39;102152.53;;;1.08;100.00
71907;BME280;59781;52.090;5.030;2024-01-07T05:27:05;102149.50;;;0.99;100.00
71907;BME280;59781;52.090;5.030;2024-01-07T05:29:31;102156.34;;;1.03;100.00
71907;BME280;59781;52.090;5.030;2024-01-07T05:31:59;102161.66;;;1.20;100.00
71907;BME280;59781;52.090;5.030;2024-01-07T05:34:28;102144.25;;;1.32;100.00
71907;BME280;59781;52.090;5.030;2024-01-07T05:36:54;102158.06;;;1.21;100.00
71907;BME280;59781;52.090;5.030;2024-01-07T05:39:20;102157.44;;;0.99;100.00
71907;BME280;59781;52.090;5.030;2024-01-07T05:41:45;102170.31;;;1.06;100.00
71907;BME280;59781;52.090;5.030;2024-01-07T05:44:11;102168.19;;;0.96;100.00
71907;BME280;59781;52.090;5.030;2024-01-07T05:46:40;102180.53;;;0.79;100.00
71907;BME280;59781;52.090;5.030;2024-01-07T05:49:07;102178.94;;;0.75;100.00
71907;BME280;59781;52.090;5.030;2024-01-07T05:51:33;102184.44;;;1.07;100.00
71907;BME280;59781;52.090;5.030;2024-01-07T05:53:59;102172.88;;;1.08;100.00
71907;BME280;59781;52.090;5.030;2024-01-07T05:56:25;102177.19;;;1.10;100.00
71907;BME280;59781;52.090;5.030;2024-01-07T05:58:51;102180.97;;;0.70;100.00
71907;BME280;59781;52.090;5.030;2024-01-07T06:01:20;102186.16;;;0.91;100.00
71907;BME280;59781;52.090;5.030;2024-01-07T06:03:47;102185.69;;;1.00;100.00
71907;BME280;59781;52.090;5.030;2024-01-07T06:06:14;102195.69;;;1.12;100.00
71907;BME280;59781;52.090;5.030;2024-01-07T06:08:44;102197.63;;;1.08;100.00
71907;BME280;59781;52.090;5.030;2024-01-07T06:11:10;102195.03;;;1.07;100.00
71907;BME280;59781;52.090;5.030;2024-01-07T06:13:44;102198.50;;;0.73;100.00
71907;BME280;59781;52.090;5.030;2024-01-07T06:16:10;102208.09;;;1.11;100.00
71907;BME280;59781;52.090;5.030;2024-01-07T06:18:35;102211.34;;;0.99;100.00
71907;BME280;59781;52.090;5.030;2024-01-07T06:21:01;102214.13;;;0.96;100.00
71907;BME280;59781;52.090;5.030;2024-01-07T06:23:27;102219.19;;;0.83;100.00
71907;BME280;59781;52.090;5.030;2024-01-07T06:25:53;102224.13;;;0.91;100.00
71907;BME280;59781;52.090;5.030;2024-01-07T06:28:19;102222.91;;;1.15;100.00
71907;BME280;59781;52.090;5.030;2024-01-07T06:30:44;102227.28;;;1.34;100.00
71907;BME280;59781;52.090;5.030;2024-01-07T06:33:10;102231.06;;;0.94;100.00
71907;BME280;59781;52.090;5.030;2024-01-07T06:35:35;102242.75;;;1.08;100.00
71907;BME280;59781;52.090;5.030;2024-01-07T06:38:01;102235.19;;;1.18;100.00
71907;BME280;59781;52.090;5.030;2024-01-07T06:40:27;102251.00;;;1.02;100.00
71907;BME280;59781;52.090;5.030;2024-01-07T06:42:52;102248.66;;;0.77;100.00
71907;BME280;59781;52.090;5.030;2024-01-07T06:45:18;102262.63;;;1.00;100.00
71907;BME280;59781;52.090;5.030;2024-01-07T06:47:44;102261.75;;;0.99;100.00
71907;BME280;59781;52.090;5.030;2024-01-07T06:50:10;102269.41;;;0.69;100.00
71907;BME280;59781;52.090;5.030;2024-01-07T06:52:36;102268.16;;;0.76;100.00
71907;BME280;59781;52.090;5.030;2024-01-07T06:55:01;102262.28;;;0.89;100.00
71907;BME280;59781;52.090;5.030;2024-01-07T06:57:27;102271.88;;;0.91;100.00
71907;BME280;59781;52.090;5.030;2024-01-07T06:59:53;102267.63;;;0.87;100.00
71907;BME280;59781;52.090;5.030;2024-01-07T07:02:20;102272.94;;;0.68;100.00
71907;BME280;59781;52.090;5.030;2024-01-07T07:04:47;102273.44;;;0.76;100.00
71907;BME280;59781;52.090;5.030;2024-01-07T07:07:13;102277.50;;;1.02;100.00
71907;BME280;59781;52.090;5.030;2024-01-07T07:09:39;102283.41;;;0.90;100.00
71907;BME280;59781;52.090;5.030;2024-01-07T07:12:05;102287.09;;;1.05;100.00
71907;BME280;59781;52.090;5.030;2024-01-07T07:14:32;102290.19;;;1.14;100.00
71907;BME280;59781;52.090;5.030;2024-01-07T07:16:57;102293.34;;;1.04;100.00
71907;BME280;59781;52.090;5.030;2024-01-07T07:19:23;102298.31;;;0.74;100.00
71907;BME280;59781;52.090;5.030;2024-01-07T07:21:50;102312.84;;;1.03;100.00
71907;BME280;59781;52.090;5.030;2024-01-07T07:24:15;102303.63;;;0.74;100.00
71907;BME280;59781;52.090;5.030;2024-01-07T07:26:41;102314.81;;;0.99;100.00
71907;BME280;59781;52.090;5.030;2024-01-07T07:29:08;102317.13;;;0.69;100.00
71907;BME280;59781;52.090;5.030;2024-01-07T07:31:37;102318.25;;;0.64;100.00
71907;BME280;59781;52.090;5.030;2024-01-07T07:34:03;102319.63;;;0.72;100.00
71907;BME280;59781;52.090;5.030;2024-01-07T07:36:30;102322.88;;;0.58;100.00
71907;BME280;59781;52.090;5.030;2024-01-07T07:38:55;102337.38;;;0.51;100.00
71907;BME280;59781;52.090;5.030;2024-01-07T07:41:21;102332.88;;;0.72;100.00
71907;BME280;59781;52.090;5.030;2024-01-07T07:43:46;102340.16;;;0.86;100.00
71907;BME280;59781;52.090;5.030;2024-01-07T07:46:12;102347.56;;;0.61;100.00
71907;BME280;59781;52.090;5.030;2024-01-07T07:48:38;102336.22;;;0.76;100.00
71907;BME280;59781;52.090;5.030;2024-01-07T07:51:05;102349.28;;;0.62;100.00
71907;BME280;59781;52.090;5.030;2024-01-07T07:53:30;102347.94;;;0.72;100.00
71907;BME280;59781;52.090;5.030;2024-01-07T07:55:56;102362.41;;;0.83;100.00
71907;BME280;59781;52.090;5.030;2024-01-07T07:58:22;102363.84;;;0.91;100.00
71907;BME280;59781;52.090;5.030;2024-01-07T08:00:47;102369.50;;;1.02;100.00
71907;BME280;59781;52.090;5.030;2024-01-07T08:03:13;102379.06;;;0.67;100.00
71907;BME280;59781;52.090;5.030;2024-01-07T08:05:39;102378.59;;;0.96;100.00
71907;BME280;59781;52.090;5.030;2024-01-07T08:08:06;102387.53;;;0.75;100.00
71907;BME280;59781;52.090;5.030;2024-01-07T08:10:32;102395.75;;;0.50;100.00
71907;BME280;59781;52.090;5.030;2024-01-07T08:12:57;102389.78;;;0.45;100.00
71907;BME280;59781;52.090;5.030;2024-01-07T08:15:23;102394.59;;;0.55;100.00
71907;BME280;59781;52.090;5.030;2024-01-07T08:17:51;102397.06;;;0.60;100.00
71907;BME280;59781;52.090;5.030;2024-01-07T08:20:17;102401.75;;;0.74;100.00
71907;BME280;59781;52.090;5.030;2024-01-07T08:22:42;102402.75;;;0.71;100.00
71907;BME280;59781;52.090;5.030;2024-01-07T08:25:08;102396.41;;;0.55;100.00
71907;BME280;59781;52.090;5.030;2024-01-07T08:27:34;102403.63;;;0.51;100.00
71907;BME280;59781;52.090;5.030;2024-01-07T08:30:01;102412.06;;;0.41;100.00
71907;BME280;59781;52.090;5.030;2024-01-07T08:32:27;102398.78;;;0.61;100.00
71907;BME280;59781;52.090;5.030;2024-01-07T08:34:52;102400.16;;;0.70;100.00
71907;BME280;59781;52.090;5.030;2024-01-07T08:37:18;102397.25;;;0.55;100.00
71907;BME280;59781;52.090;5.030;2024-01-07T08:39:44;102402.41;;;0.40;100.00
71907;BME280;59781;52.090;5.030;2024-01-07T08:42:09;102420.59;;;0.47;100.00
71907;BME280;59781;52.090;5.030;2024-01-07T08:44:35;102413.44;;;0.70;100.00
71907;BME280;59781;52.090;5.030;2024-01-07T08:47:01;102410.22;;;0.82;100.00
71907;BME280;59781;52.090;5.030;2024-01-07T08:49:29;102418.38;;;0.57;100.00
71907;BME280;59781;52.090;5.030;2024-01-07T08:51:56;102434.66;;;0.49;100.00
71907;BME280;59781;52.090;5.030;2024-01-07T08:54:22;102431.91;;;0.71;100.00
71907;BME280;59781;52.090;5.030;2024-01-07T08:56:48;102431.19;;;0.86;100.00
71907;BME280;59781;52.090;5.030;2024-01-07T08:59:14;102440.91;;;0.67;100.00
71907;BME280;59781;52.090;5.030;2024-01-07T09:01:40;102446.50;;;0.61;100.00
71907;BME280;59781;52.090;5.030;2024-01-07T09:04:06;102447.91;;;0.49;100.00
71907;BME280;59781;52.090;5.030;2024-01-07T09:06:31;102455.09;;;0.25;100.00
71907;BME280;59781;52.090;5.030;2024-01-07T09:08:57;102462.22;;;0.45;100.00
71907;BME280;59781;52.090;5.030;2024-01-07T09:11:23;102459.66;;;0.83;100.00
71907;BME280;59781;52.090;5.030;2024-01-07T09:13:49;102459.78;;;0.41;100.00
71907;BME280;59781;52.090;5.030;2024-01-07T09:16:16;102456.72;;;0.50;100.00
71907;BME280;59781;52.090;5.030;2024-01-07T09:18:41;102476.31;;;0.46;100.00
71907;BME280;59781;52.090;5.030;2024-01-07T09:21:09;102475.94;;;0.55;100.00
71907;BME280;59781;52.090;5.030;2024-01-07T09:23:35;102475.31;;;0.28;100.00
71907;BME280;59781;52.090;5.030;2024-01-07T09:26:04;102481.00;;;0.39;100.00
71907;BME280;59781;52.090;5.030;2024-01-07T09:28:30;102475.66;;;0.41;100.00
71907;BME280;59781;52.090;5.030;2024-01-07T09:30:56;102483.28;;;0.48;100.00
71907;BME280;59781;52.090;5.030;2024-01-07T09:33:21;102487.22;;;0.60;100.00
71907;BME280;59781;52.090;5.030;2024-01-07T09:35:50;102488.16;;;0.78;100.00
71907;BME280;59781;52.090;5.030;2024-01-07T09:38:16;102494.31;;;0.60;100.00
71907;BME280;59781;52.090;5.030;2024-01-07T09:40:42;102495.16;;;0.60;100.00
71907;BME280;59781;52.090;5.030;2024-01-07T09:43:08;102502.03;;;0.64;100.00
71907;BME280;59781;52.090;5.030;2024-01-07T09:45:38;102498.38;;;0.67;100.00
71907;BME280;59781;52.090;5.030;2024-01-07T09:48:06;102503.63;;;0.48;100.00
71907;BME280;59781;52.090;5.030;2024-01-07T09:50:32;102504.13;;;0.36;100.00
71907;BME280;59781;52.090;5.030;2024-01-07T09:52:58;102511.31;;;0.34;100.00
71907;BME280;59781;52.090;5.030;2024-01-07T09:55:33;102513.03;;;0.55;100.00
71907;BME280;59781;52.090;5.030;2024-01-07T09:58:25;102518.88;;;0.43;100.00
71907;BME280;59781;52.090;5.030;2024-01-07T10:00:52;102519.63;;;0.24;100.00
71907;BME280;59781;52.090;5.030;2024-01-07T10:03:17;102524.97;;;0.45;100.00
71907;BME280;59781;52.090;5.030;2024-01-07T10:05:43;102525.53;;;0.31;100.00
71907;BME280;59781;52.090;5.030;2024-01-07T10:08:09;102535.81;;;0.39;100.00
71907;BME280;59781;52.090;5.030;2024-01-07T10:10:35;102527.53;;;0.46;100.00
71907;BME280;59781;52.090;5.030;2024-01-07T10:13:01;102524.97;;;0.45;100.00
71907;BME280;59781;52.090;5.030;2024-01-07T10:15:27;102533.38;;;0.75;100.00
71907;BME280;59781;52.090;5.030;2024-01-07T10:18:03;102526.53;;;0.49;100.00
71907;BME280;59781;52.090;5.030;2024-01-07T10:20:32;102537.81;;;0.54;100.00
71907;BME280;59781;52.090;5.030;2024-01-07T10:23:04;102545.47;;;0.82;100.00
71907;BME280;59781;52.090;5.030;2024-01-07T10:25:30;102549.16;;;0.57;100.00
71907;BME280;59781;52.090;5.030;2024-01-07T10:28:01;102554.00;;;0.68;100.00
71907;BME280;59781;52.090;5.030;2024-01-07T10:30:28;102555.59;;;0.52;100.00
71907;BME280;59781;52.090;5.030;2024-01-07T10:32:58;102550.47;;;0.88;100.00
71907;BME280;59781;52.090;5.030;2024-01-07T10:35:29;102548.72;;;0.89;100.00
71907;BME280;59781;52.090;5.030;2024-01-07T10:37:59;102547.66;;;0.72;100.00
71907;BME280;59781;52.090;5.030;2024-01-07T10:40:27;102552.72;;;0.56;100.00
71907;BME280;59781;52.090;5.030;2024-01-07T10:42:55;102554.03;;;0.46;100.00
71907;BME280;59781;52.090;5.030;2024-01-07T10:45:22;102554.72;;;0.51;100.00
71907;BME280;59781;52.090;5.030;2024-01-07T10:47:49;102555.66;;;0.28;100.00
71907;BME280;59781;52.090;5.030;2024-01-07T10:50:21;102571.88;;;0.43;100.00
71907;BME280;59781;52.090;5.030;2024-01-07T10:53:02;102558.88;;;0.37;100.00
71907;BME280;59781;52.090;5.030;2024-01-07T10:55:34;102563.09;;;0.63;100.00
71907;BME280;59781;52.090;5.030;2024-01-07T10:58:03;102568.38;;;0.42;100.00
71907;BME280;59781;52.090;5.030;2024-01-07T11:00:30;102564.50;;;0.71;100.00
71907;BME280;59781;52.090;5.030;2024-01-07T11:03:18;102562.78;;;0.70;100.00
71907;BME280;59781;52.090;5.030;2024-01-07T11:05:56;102565.56;;;0.45;100.00
71907;BME280;59781;52.090;5.030;2024-01-07T11:08:33;102568.56;;;0.58;100.00
71907;BME280;59781;52.090;5.030;2024-01-07T11:11:32;102565.06;;;0.57;100.00
71907;BME280;59781;52.090;5.030;2024-01-07T11:14:03;102571.28;;;0.56;100.00
71907;BME280;59781;52.090;5.030;2024-01-07T11:16:46;102570.69;;;0.50;100.00
71907;BME280;59781;52.090;5.030;2024-01-07T11:19:13;102571.84;;;0.65;100.00
71907;BME280;59781;52.090;5.030;2024-01-07T11:21:40;102566.59;;;0.63;100.00
71907;BME280;59781;52.090;5.030;2024-01-07T11:24:06;102568.94;;;0.71;100.00
71907;BME280;59781;52.090;5.030;2024-01-07T11:26:31;102555.47;;;0.96;100.00
71907;BME280;59781;52.090;5.030;2024-01-07T11:28:58;102555.28;;;1.00;100.00
71907;BME280;59781;52.090;5.030;2024-01-07T11:31:47;102548.38;;;0.76;100.00
71907;BME280;59781;52.090;5.030;2024-01-07T11:37:09;102549.63;;;0.88;100.00
71907;BME280;59781;52.090;5.030;2024-01-07T11:39:36;102560.03;;;0.72;100.00
71907;BME280;59781;52.090;5.030;2024-01-07T11:42:03;102554.75;;;0.92;100.00
71907;BME280;59781;52.090;5.030;2024-01-07T11:44:29;102542.81;;;0.82;100.00
71907;BME280;59781;52.090;5.030;2024-01-07T11:46:55;102557.06;;;1.00;100.00
71907;BME280;59781;52.090;5.030;2024-01-07T11:49:21;102540.84;;;1.06;100.00
71907;BME280;59781;52.090;5.030;2024-01-07T11:51:47;102554.41;;;0.79;100.00
71907;BME280;59781;52.090;5.030;2024-01-07T11:54:13;102564.09;;;1.01;100.00
71907;BME280;59781;52.090;5.030;2024-01-07T11:56:39;102566.97;;;1.15;100.00
71907;BME280;59781;52.090;5.030;2024-01-07T11:59:05;102570.91;;;1.06;100.00
71907;BME280;59781;52.090;5.030;2024-01-07T12:01:32;102567.59;;;1.22;100.00
71907;BME280;59781;52.090;5.030;2024-01-07T12:03:58;102553.06;;;1.49;100.00
71907;BME280;59781;52.090;5.030;2024-01-07T12:06:23;102559.47;;;1.25;100.00
71907;BME280;59781;52.090;5.030;2024-01-07T12:08:50;102558.34;;;1.30;100.00
71907;BME280;59781;52.090;5.030;2024-01-07T12:11:16;102564.00;;;1.23;100.00
71907;BME280;59781;52.090;5.030;2024-01-07T12:13:44;102555.28;;;1.39;100.00
71907;BME280;59781;52.090;5.030;2024-01-07T12:16:11;102562.41;;;1.58;100.00
71907;BME280;59781;52.090;5.030;2024-01-07T12:18:37;102560.84;;;1.33;100.00
71907;BME280;59781;52.090;5.030;2024-01-07T12:21:03;102564.25;;;1.56;100.00
71907;BME280;59781;52.090;5.030;2024-01-07T12:23:34;102565.94;;;1.19;100.00
71907;BME280;59781;52.090;5.030;2024-01-07T12:26:07;102576.47;;;1.21;100.00
71907;BME280;59781;52.090;5.030;2024-01-07T12:28:34;102569.41;;;1.01;100.00
71907;BME280;59781;52.090;5.030;2024-01-07T12:31:00;102582.97;;;1.13;100.00
71907;BME280;59781;52.090;5.030;2024-01-07T12:33:26;102584.25;;;1.05;100.00
71907;BME280;59781;52.090;5.030;2024-01-07T12:35:54;102589.00;;;0.97;100.00
71907;BME280;59781;52.090;5.030;2024-01-07T12:38:27;102584.78;;;0.72;100.00
71907;BME280;59781;52.090;5.030;2024-01-07T12:40:53;102587.97;;;0.80;100.00
71907;BME280;59781;52.090;5.030;2024-01-07T12:43:20;102596.19;;;0.95;100.00
71907;BME280;59781;52.090;5.030;2024-01-07T12:45:47;102587.09;;;0.80;100.00
71907;BME280;59781;52.090;5.030;2024-01-07T12:48:13;102601.41;;;0.96;100.00
71907;BME280;59781;52.090;5.030;2024-01-07T12:50:39;102604.75;;;1.01;100.00